Chlef, Algeria
Current Conditions -  °F | °C
As of 3:00 AM on Monday 24 Nov 2014 (Local Time) from DAOI Reporting Station
Scattered Clouds Scattered Clouds  
Wind Chill: 72°   Ceiling: Unl
Heat Index: 72°   Visibility: 5mi
Dew Point: 50°   Wind: 9mph
Humidity: 46%   Direction: 200°SSW
Pressure: 29.94"   Gusts: NA
Location:  36.2°N, 1.26°E
Report Text: DAOI 240200Z 20008KT 8000 SCT026 SCT233 22/10 Q1014
Loading
Personal Weather Stations






























Interactive Weather Map New forecast layout! Learn more

10-Day Weather Forecast

Advertisements
Track Severe Weather on mobile